createdAt,value
2022-09-28T00:02:33.332Z,4.0455
2022-09-28T00:07:45.331Z,4.0504
2022-09-28T00:12:57.044Z,4.0455
2022-09-28T00:18:08.994Z,4.0455
2022-09-28T00:23:21.440Z,4.0455
2022-09-28T00:28:33.155Z,4.0455
2022-09-28T00:33:44.863Z,4.0455
2022-09-28T00:38:56.893Z,4.0455
2022-09-28T00:44:08.934Z,4.0406
2022-09-28T00:54:33.099Z,4.0455
2022-09-28T00:59:44.953Z,4.0406
2022-09-28T01:04:56.704Z,4.0406
2022-09-28T01:10:08.860Z,4.0406
2022-09-28T01:20:32.899Z,4.0406
2022-09-28T01:25:44.987Z,4.0406
2022-09-28T01:30:56.802Z,4.0406
2022-09-28T01:36:08.821Z,4.0406
2022-09-28T01:46:32.654Z,4.0406
2022-09-28T01:51:44.448Z,4.0406
2022-09-28T01:56:56.357Z,4.0309
2022-09-28T02:02:08.829Z,4.0406
2022-09-28T02:12:32.670Z,4.0309
2022-09-28T02:17:44.587Z,4.0309
2022-09-28T02:22:56.425Z,4.0309
2022-09-28T02:28:08.331Z,4.0309
2022-09-28T02:38:33.072Z,4.0309
2022-09-28T02:43:44.672Z,4.0309
2022-09-28T02:49:23.529Z,4.0309
2022-09-28T02:54:31.155Z,4.0309
2022-09-28T02:59:42.800Z,4.0309
2022-09-28T03:04:54.795Z,4.0309
2022-09-28T03:10:06.926Z,4.0309
2022-09-28T03:20:30.799Z,4.0406
2022-09-28T03:25:42.833Z,4.0309
2022-09-28T03:30:55.010Z,4.026
2022-09-28T03:36:06.955Z,4.026
2022-09-28T03:46:30.763Z,4.026
2022-09-28T03:51:42.636Z,4.026
2022-09-28T03:56:54.576Z,4.026
2022-09-28T04:02:07.295Z,4.026
2022-09-28T04:12:30.767Z,4.026
2022-09-28T04:17:42.910Z,4.026
2022-09-28T04:22:54.783Z,4.026
2022-09-28T04:28:06.984Z,4.026
2022-09-28T04:38:54.466Z,4.0211
2022-09-28T04:44:02.755Z,4.0211
2022-09-28T04:54:27.075Z,4.0211
2022-09-28T04:59:38.964Z,4.0211
2022-09-28T05:04:51.228Z,4.0211
2022-09-28T05:10:04.206Z,4.0211
2022-09-28T05:20:28.017Z,4.0162
2022-09-28T05:25:39.855Z,4.0211
2022-09-28T05:30:51.943Z,4.0162
2022-09-28T05:36:04.279Z,4.0211
2022-09-28T05:46:28.285Z,4.0162
2022-09-28T05:51:40.127Z,4.0162
2022-09-28T05:56:51.991Z,4.026
2022-09-28T06:02:04.374Z,4.0162
2022-09-28T06:12:28.102Z,4.0162
2022-09-28T06:17:40.271Z,4.0162
2022-09-28T06:22:52.426Z,4.0162
2022-09-28T06:28:13.414Z,4.0162
2022-09-28T06:38:43.160Z,4.0162
2022-09-28T06:43:54.937Z,4.0162
2022-09-28T06:49:07.084Z,4.0162
2022-09-28T06:59:31.706Z,4.0211
2022-09-28T07:04:43.678Z,4.0162
2022-09-28T07:09:56.499Z,4.0162
2022-09-28T07:15:08.185Z,4.0162
2022-09-28T07:25:33.007Z,4.0162
2022-09-28T07:30:45.820Z,4.0162
2022-09-28T07:35:57.304Z,4.0162
2022-09-28T07:41:10.111Z,4.0162
2022-09-28T07:46:22.338Z,4.0162
2022-09-28T07:51:34.493Z,4.0162
2022-09-28T07:56:46.753Z,4.0162
2022-09-28T08:01:59.010Z,4.0162
2022-09-28T08:07:11.233Z,4.0162
2022-09-28T08:12:23.513Z,4.0162
2022-09-28T08:17:35.580Z,4.0211
2022-09-28T08:22:47.614Z,4.0211
2022-09-28T08:27:59.950Z,4.0211
2022-09-28T08:38:23.843Z,4.0211
2022-09-28T08:43:36.046Z,4.0211
2022-09-28T08:49:26.905Z,4.026
2022-09-28T08:54:33.703Z,4.0162
2022-09-28T08:59:45.740Z,4.0162
2022-09-28T09:04:58.395Z,4.0162
2022-09-28T09:10:10.001Z,4.0162
2022-09-28T09:15:21.998Z,4.0211
2022-09-28T09:20:33.820Z,4.0162
2022-09-28T09:25:45.576Z,4.0162
2022-09-28T09:30:57.767Z,4.0162
2022-09-28T09:36:09.426Z,4.0162
2022-09-28T09:41:21.101Z,4.0162
2022-09-28T09:46:32.867Z,4.0162
2022-09-28T09:51:44.603Z,4.0162
2022-09-28T09:56:56.265Z,4.0162
2022-09-28T10:07:24.461Z,4.0162
2022-09-28T10:12:36.351Z,4.0162
2022-09-28T10:17:48.159Z,4.0114
2022-09-28T10:22:59.746Z,4.0162
2022-09-28T10:38:35.217Z,4.0211
2022-09-28T10:43:58.482Z,4.0211
2022-09-28T10:54:26.078Z,4.0162
2022-09-28T10:59:38.063Z,4.0162
2022-09-28T11:04:50.062Z,4.0162
2022-09-28T11:10:01.992Z,4.0309
2022-09-28T11:20:29.597Z,4.065
2022-09-28T11:25:41.523Z,4.1187
2022-09-28T11:30:56.141Z,4.0748
2022-09-28T11:46:30.945Z,4.0455
2022-09-28T12:02:02.024Z,4.0553
2022-09-28T12:12:26.387Z,4.0553
2022-09-28T12:17:38.981Z,4.0504
2022-09-28T12:22:50.973Z,4.0602
2022-09-28T12:28:03.885Z,4.0553
2022-09-28T12:38:28.662Z,4.0553
2022-09-28T12:43:40.809Z,4.0504
2022-09-28T12:50:42.801Z,4.0748
2022-09-28T12:55:51.938Z,4.109
2022-09-28T13:16:34.550Z,4.065
2022-09-28T13:26:58.997Z,4.0894
2022-09-28T13:32:11.820Z,4.0797
2022-09-28T13:37:23.726Z,4.0748
2022-09-28T13:42:35.541Z,4.0699
2022-09-28T13:47:47.871Z,4.1041
2022-09-28T13:53:00.357Z,4.0797
2022-09-28T13:58:12.405Z,4.0748
2022-09-28T14:03:24.750Z,4.0797
2022-09-28T14:08:37.153Z,4.0748
2022-09-28T14:18:59.129Z,4.0748
2022-09-28T14:24:11.251Z,4.0748
2022-09-28T14:29:23.538Z,4.0748
2022-09-28T14:34:35.987Z,4.0748
2022-09-28T14:39:48.205Z,4.0748
2022-09-28T14:45:08.356Z,4.0797
2022-09-28T14:50:19.640Z,4.0846
2022-09-28T14:55:32.265Z,4.0894
2022-09-28T15:11:09.315Z,4.0894
2022-09-28T15:16:21.601Z,4.0846
2022-09-28T15:21:34.077Z,4.0846
2022-09-28T15:31:58.709Z,4.0846
2022-09-28T15:37:11.188Z,4.0894
2022-09-28T15:42:23.332Z,4.0797
2022-09-28T15:47:35.358Z,4.0748
2022-09-28T15:57:59.644Z,4.0797
2022-09-28T16:03:12.186Z,4.0748
2022-09-28T16:08:24.650Z,4.0699
2022-09-28T16:13:36.559Z,4.0699
2022-09-28T16:18:48.623Z,4.0699
2022-09-28T16:24:01.361Z,4.065
2022-09-28T16:29:13.642Z,4.065
2022-09-28T16:34:25.835Z,4.065
2022-09-28T16:39:37.843Z,4.0699
2022-09-28T16:44:49.921Z,4.065
2022-09-28T16:50:02.019Z,4.065
2022-09-28T16:55:42.193Z,4.0602
2022-09-28T17:06:01.871Z,4.0602
2022-09-28T17:11:25.943Z,4.065
2022-09-28T17:17:17.716Z,4.0553
2022-09-28T17:22:24.380Z,4.0553
2022-09-28T17:27:36.434Z,4.0553
2022-09-28T17:32:48.382Z,4.0553
2022-09-28T17:38:00.390Z,4.0553
2022-09-28T17:43:12.648Z,4.0553
2022-09-28T17:48:24.406Z,4.0504
2022-09-28T17:53:36.489Z,4.0504
2022-09-28T17:58:48.722Z,4.0504
2022-09-28T18:04:00.790Z,4.0504
2022-09-28T18:09:12.859Z,4.0504
2022-09-28T18:14:25.324Z,4.0504
2022-09-28T18:19:37.680Z,4.0504
2022-09-28T18:24:49.441Z,4.0504
2022-09-28T18:30:01.553Z,4.0504
2022-09-28T18:35:14.020Z,4.0455
2022-09-28T18:40:26.181Z,4.0455
2022-09-28T18:45:38.356Z,4.0504
2022-09-28T18:50:50.214Z,4.0455
2022-09-28T18:56:02.725Z,4.0455
2022-09-28T19:01:33.497Z,4.0455
2022-09-28T19:11:54.136Z,4.0455
2022-09-28T19:17:06.315Z,4.0455
2022-09-28T19:22:18.308Z,4.0455
2022-09-28T19:27:30.596Z,4.0455
2022-09-28T19:37:54.831Z,4.0406
2022-09-28T19:43:07.093Z,4.0406
2022-09-28T19:48:19.206Z,4.0455
2022-09-28T19:53:31.155Z,4.0406
2022-09-28T20:03:56.488Z,4.0455
2022-09-28T20:09:08.634Z,4.0406
2022-09-28T20:14:34.178Z,4.0406
2022-09-28T20:30:10.016Z,4.0309
2022-09-28T20:35:34.169Z,4.0309
2022-09-28T20:45:55.640Z,4.0309
2022-09-28T20:51:07.712Z,4.0309
2022-09-28T20:56:19.637Z,4.0309
2022-09-28T21:01:31.911Z,4.0309
2022-09-28T21:11:53.282Z,4.0309
2022-09-28T21:17:05.759Z,4.0309
2022-09-28T21:22:17.659Z,4.0309
2022-09-28T21:37:49.964Z,4.026
2022-09-28T21:43:01.610Z,4.026
2022-09-28T21:48:13.545Z,4.026
2022-09-28T21:53:25.470Z,4.026
2022-09-28T21:58:37.793Z,4.0309
2022-09-28T22:03:49.861Z,4.026
2022-09-28T22:09:01.917Z,4.026
2022-09-28T22:14:14.017Z,4.026
2022-09-28T22:19:25.947Z,4.026
2022-09-28T22:24:37.924Z,4.026
2022-09-28T22:29:49.760Z,4.026
2022-09-28T22:35:02.124Z,4.026
2022-09-28T22:40:13.968Z,4.026
2022-09-28T22:45:26.199Z,4.0211
2022-09-28T22:55:50.316Z,4.0211
2022-09-28T23:01:02.465Z,4.0211
2022-09-28T23:06:14.385Z,4.0211
2022-09-28T23:11:26.239Z,4.0211
2022-09-28T23:16:38.020Z,4.0211
2022-09-28T23:21:50.158Z,4.0211
2022-09-28T23:27:02.153Z,4.0211
2022-09-28T23:32:14.186Z,4.026
2022-09-28T23:37:26.288Z,4.0211
2022-09-28T23:47:50.405Z,4.0211
2022-09-28T23:53:02.477Z,4.026
2022-09-28T23:58:14.519Z,4.0211
